createdAt,value
2019-01-09T00:00:11.634Z,13.30
2019-01-09T00:02:39.933Z,22.30
2019-01-09T00:05:08.077Z,23.53
2019-01-09T00:07:36.259Z,17.97
2019-01-09T00:10:04.982Z,12.47
2019-01-09T00:12:33.121Z,19.47
2019-01-09T00:15:01.327Z,13.83
2019-01-09T00:17:29.432Z,16.73
2019-01-09T00:19:57.577Z,10.70
2019-01-09T00:22:25.744Z,9.60
2019-01-09T00:24:54.109Z,11.73
2019-01-09T00:27:22.249Z,12.50
2019-01-09T00:29:50.609Z,9.43
2019-01-09T00:32:20.194Z,11.13
2019-01-09T00:34:48.338Z,12.80
2019-01-09T00:37:19.280Z,11.27
2019-01-09T00:39:47.422Z,15.00
2019-01-09T00:42:15.557Z,15.90
2019-01-09T00:44:43.729Z,10.73
2019-01-09T00:47:11.876Z,13.67
2019-01-09T00:49:40.021Z,21.07
2019-01-09T00:52:10.324Z,25.20
2019-01-09T00:54:38.473Z,15.97
2019-01-09T00:57:06.608Z,18.13
2019-01-09T00:59:34.830Z,24.50
2019-01-09T01:02:04.602Z,16.97
2019-01-09T01:04:34.368Z,17.47
2019-01-09T01:07:04.178Z,18.90
2019-01-09T01:09:49.241Z,17.40
2019-01-09T01:12:19.041Z,15.87
2019-01-09T01:15:05.377Z,21.37
2019-01-09T01:17:51.533Z,8.83
2019-01-09T01:20:30.262Z,11.70
2019-01-09T01:23:18.478Z,9.87
2019-01-09T01:25:54.061Z,11.00
2019-01-09T01:28:32.689Z,19.80
2019-01-09T01:31:17.381Z,10.90
2019-01-09T01:33:47.192Z,12.37
2019-01-09T01:36:33.328Z,20.27
2019-01-09T01:39:19.883Z,20.17
2019-01-09T01:41:55.449Z,15.17
2019-01-09T01:44:25.553Z,22.27
2019-01-09T01:46:55.341Z,16.50
2019-01-09T01:49:40.320Z,14.50
2019-01-09T01:52:13.012Z,18.57
2019-01-09T01:54:45.734Z,12.63
2019-01-09T01:57:18.599Z,14.90
2019-01-09T01:59:48.398Z,13.63
2019-01-09T02:02:19.023Z,8.97
2019-01-09T02:04:48.970Z,14.27
2019-01-09T02:07:22.073Z,11.60
2019-01-09T02:09:54.773Z,10.70
2019-01-09T02:12:24.543Z,11.73
2019-01-09T02:15:00.443Z,11.23
2019-01-09T02:17:30.212Z,13.47
2019-01-09T02:20:02.924Z,14.23
2019-01-09T02:22:41.559Z,11.40
2019-01-09T02:25:11.370Z,15.33
2019-01-09T02:27:43.837Z,14.00
2019-01-09T02:30:30.152Z,19.83
2019-01-09T02:32:58.297Z,17.63
2019-01-09T02:35:26.436Z,13.27
2019-01-09T02:37:54.619Z,23.00
2019-01-09T02:40:22.762Z,16.00
2019-01-09T02:42:51.074Z,19.50
2019-01-09T02:45:19.252Z,19.53
2019-01-09T02:47:47.395Z,25.20
2019-01-09T02:50:15.537Z,24.80
2019-01-09T02:52:43.721Z,21.33
2019-01-09T02:55:11.871Z,35.30
2019-01-09T02:57:40.007Z,27.03
2019-01-09T03:00:09.913Z,20.03
2019-01-09T03:02:38.038Z,23.13
2019-01-09T03:05:06.186Z,22.83
2019-01-09T03:07:34.601Z,16.13
2019-01-09T03:10:02.968Z,15.33
2019-01-09T03:12:31.114Z,17.17
2019-01-09T03:14:59.294Z,21.77
2019-01-09T03:17:27.438Z,20.33
2019-01-09T03:19:55.582Z,25.77
2019-01-09T03:22:23.762Z,27.83
2019-01-09T03:24:51.909Z,34.43
2019-01-09T03:27:20.053Z,26.67
2019-01-09T03:29:48.238Z,25.70
2019-01-09T03:32:16.458Z,23.50
2019-01-09T03:34:44.603Z,22.00
2019-01-09T03:37:12.822Z,22.03
2019-01-09T03:39:40.969Z,16.23
2019-01-09T03:42:09.112Z,11.33
2019-01-09T03:44:37.278Z,13.33
2019-01-09T03:47:05.416Z,23.30
2019-01-09T03:49:33.551Z,14.27
2019-01-09T03:52:01.726Z,13.67
2019-01-09T03:54:29.986Z,20.70
2019-01-09T03:56:58.133Z,14.83
2019-01-09T03:59:26.296Z,16.90
2019-01-09T04:01:54.437Z,9.23
2019-01-09T04:04:22.575Z,6.93
2019-01-09T04:06:50.773Z,8.50
2019-01-09T04:09:18.909Z,4.77
2019-01-09T04:11:47.052Z,4.83
2019-01-09T04:14:15.289Z,4.63
2019-01-09T04:16:43.439Z,8.50
2019-01-09T04:19:11.577Z,6.47
2019-01-09T04:21:39.746Z,8.63
2019-01-09T04:24:07.891Z,7.83
2019-01-09T04:26:37.655Z,9.13
2019-01-09T04:29:05.829Z,11.03
2019-01-09T04:31:33.986Z,11.40
2019-01-09T04:34:02.127Z,12.87
2019-01-09T04:36:30.300Z,9.87
2019-01-09T04:38:58.437Z,17.07
2019-01-09T04:41:26.578Z,13.37
2019-01-09T04:43:54.779Z,16.40
2019-01-09T04:46:22.921Z,21.03
2019-01-09T04:48:51.063Z,18.60
2019-01-09T04:51:19.235Z,20.50
2019-01-09T04:53:47.372Z,13.20
2019-01-09T04:56:15.514Z,20.70
2019-01-09T04:58:43.678Z,8.23
2019-01-09T05:01:11.824Z,20.87
2019-01-09T05:03:40.094Z,19.03
2019-01-09T05:06:08.273Z,24.60
2019-01-09T05:08:36.418Z,12.93
2019-01-09T05:11:04.561Z,14.77
2019-01-09T05:13:32.740Z,14.13
2019-01-09T05:16:00.876Z,15.00
2019-01-09T05:18:29.028Z,11.00
2019-01-09T05:20:57.199Z,12.10
2019-01-09T05:23:25.337Z,16.03
2019-01-09T05:25:53.493Z,9.17
2019-01-09T05:28:21.654Z,11.47
2019-01-09T05:30:49.795Z,14.93
2019-01-09T05:33:18.045Z,8.43
2019-01-09T05:35:46.201Z,7.43
2019-01-09T05:38:14.345Z,12.57
2019-01-09T05:40:42.487Z,9.30
2019-01-09T05:43:10.649Z,12.00
2019-01-09T05:45:38.791Z,8.87
2019-01-09T05:48:06.945Z,15.60
2019-01-09T05:50:35.115Z,12.37
2019-01-09T05:53:03.248Z,14.50
2019-01-09T05:55:31.522Z,14.70
2019-01-09T05:57:59.693Z,11.13
2019-01-09T06:00:27.833Z,8.53
2019-01-09T06:02:55.974Z,11.03
2019-01-09T06:05:24.148Z,7.97
2019-01-09T06:07:52.292Z,9.77
2019-01-09T06:10:20.442Z,15.07
2019-01-09T06:12:48.614Z,9.97
2019-01-09T06:15:16.753Z,6.97
2019-01-09T06:17:44.886Z,5.93
2019-01-09T06:20:13.061Z,5.03
2019-01-09T06:22:41.204Z,5.90
2019-01-09T06:25:09.359Z,11.00
2019-01-09T06:27:37.521Z,9.87
2019-01-09T06:30:05.967Z,10.33
2019-01-09T06:32:34.101Z,12.07
2019-01-09T06:35:02.278Z,14.03
2019-01-09T06:37:33.257Z,13.13
2019-01-09T06:40:01.390Z,12.93
2019-01-09T06:42:29.561Z,11.60
2019-01-09T06:44:57.698Z,8.73
2019-01-09T06:47:25.845Z,19.27
2019-01-09T06:49:54.521Z,12.70
2019-01-09T06:52:22.661Z,19.10
2019-01-09T06:54:50.838Z,15.93
2019-01-09T06:57:18.988Z,25.50
2019-01-09T06:59:47.149Z,15.93
2019-01-09T07:02:15.309Z,19.07
2019-01-09T07:04:44.761Z,13.53
2019-01-09T07:07:13.197Z,21.60
2019-01-09T07:09:41.349Z,14.07
2019-01-09T07:12:09.534Z,16.53
2019-01-09T07:14:37.673Z,15.03
2019-01-09T07:17:05.854Z,20.27
2019-01-09T07:19:34.025Z,27.30
2019-01-09T07:22:02.254Z,18.43
2019-01-09T07:24:30.474Z,21.97
2019-01-09T07:26:58.649Z,19.90
2019-01-09T07:29:26.796Z,18.77
2019-01-09T07:31:54.930Z,20.50
2019-01-09T07:34:23.097Z,24.63
2019-01-09T07:36:51.244Z,22.40
2019-01-09T07:39:19.382Z,24.63
2019-01-09T07:41:47.567Z,28.20
2019-01-09T07:44:15.707Z,29.67
2019-01-09T07:46:44.271Z,25.07
2019-01-09T07:49:12.453Z,18.70
2019-01-09T07:51:40.661Z,23.40
2019-01-09T07:54:08.809Z,22.17
2019-01-09T07:56:38.031Z,19.13
2019-01-09T07:59:08.960Z,17.33
2019-01-09T08:01:38.908Z,20.87
2019-01-09T08:04:07.165Z,23.27
2019-01-09T08:06:35.329Z,25.93
2019-01-09T08:09:05.113Z,18.90
2019-01-09T08:11:36.098Z,26.10
2019-01-09T08:14:04.238Z,16.80
2019-01-09T08:16:32.376Z,21.67
2019-01-09T08:19:00.553Z,23.40
2019-01-09T08:21:28.689Z,20.57
2019-01-09T08:23:56.949Z,20.73
2019-01-09T08:26:26.876Z,16.50
2019-01-09T08:28:55.049Z,15.63
2019-01-09T08:31:23.203Z,20.03
2019-01-09T08:33:51.368Z,16.27
2019-01-09T08:36:21.144Z,23.67
2019-01-09T08:38:49.287Z,20.80
2019-01-09T08:41:17.457Z,16.07
2019-01-09T08:43:45.609Z,18.23
2019-01-09T08:46:13.750Z,18.73
2019-01-09T08:48:41.918Z,24.67
2019-01-09T08:51:10.070Z,22.20
2019-01-09T08:53:38.412Z,22.77
2019-01-09T08:56:06.800Z,23.87
2019-01-09T08:58:34.949Z,25.33
2019-01-09T09:01:03.076Z,26.63
2019-01-09T09:03:31.307Z,25.60
2019-01-09T09:06:00.360Z,25.80
2019-01-09T09:08:28.549Z,27.70
2019-01-09T09:10:56.714Z,27.47
2019-01-09T09:13:35.413Z,18.70
2019-01-09T09:16:03.765Z,29.07
2019-01-09T09:18:31.977Z,23.40
2019-01-09T09:21:00.113Z,28.37
2019-01-09T09:23:28.297Z,24.23
2019-01-09T09:25:56.445Z,21.63
2019-01-09T09:28:26.237Z,14.83
2019-01-09T09:30:54.405Z,22.77
2019-01-09T09:33:22.552Z,21.50
2019-01-09T09:35:50.701Z,24.87
2019-01-09T09:38:20.701Z,19.50
2019-01-09T09:40:48.709Z,20.27
2019-01-09T09:43:16.826Z,16.53
2019-01-09T09:45:44.993Z,21.73
2019-01-09T09:48:13.130Z,23.23
2019-01-09T09:50:41.273Z,18.30
2019-01-09T09:53:09.465Z,29.30
2019-01-09T09:55:37.602Z,24.53
2019-01-09T09:58:06.141Z,28.97
2019-01-09T10:00:34.505Z,22.60
2019-01-09T10:03:02.694Z,23.30
2019-01-09T10:05:31.079Z,21.73
2019-01-09T10:07:59.613Z,23.57
2019-01-09T10:10:27.945Z,24.57
2019-01-09T10:12:56.080Z,29.27
2019-01-09T10:15:24.251Z,25.27
2019-01-09T10:17:54.160Z,18.80
2019-01-09T10:20:22.438Z,17.23
2019-01-09T10:22:50.637Z,20.53
2019-01-09T10:25:18.778Z,23.40
2019-01-09T10:27:46.917Z,16.77
2019-01-09T10:30:21.651Z,23.60
2019-01-09T10:32:49.794Z,21.63
2019-01-09T10:35:17.933Z,15.90
2019-01-09T10:37:46.173Z,21.43
2019-01-09T10:40:15.625Z,19.77
2019-01-09T10:42:43.769Z,15.63
2019-01-09T10:45:13.805Z,12.63
2019-01-09T10:47:41.942Z,20.77
2019-01-09T10:50:11.459Z,22.33
2019-01-09T10:52:41.230Z,18.00
2019-01-09T10:55:10.638Z,26.57
2019-01-09T10:57:38.777Z,18.53
2019-01-09T11:00:08.577Z,23.60
2019-01-09T11:02:36.719Z,19.23
2019-01-09T11:05:06.052Z,15.77
2019-01-09T11:07:34.212Z,16.53
2019-01-09T11:10:02.352Z,21.57
2019-01-09T11:12:30.498Z,19.20
2019-01-09T11:14:58.670Z,17.97
2019-01-09T11:17:26.811Z,23.30
2019-01-09T11:19:54.945Z,20.77
2019-01-09T11:22:23.141Z,18.27
2019-01-09T11:24:51.288Z,18.17
2019-01-09T11:27:19.426Z,31.20
2019-01-09T11:29:47.715Z,15.10
2019-01-09T11:32:15.856Z,20.13
2019-01-09T11:34:44.004Z,21.07
2019-01-09T11:37:12.176Z,16.90
2019-01-09T11:39:40.323Z,19.00
2019-01-09T11:42:08.453Z,18.93
2019-01-09T11:44:36.630Z,17.53
2019-01-09T11:47:04.773Z,14.97
2019-01-09T11:49:32.921Z,17.50
2019-01-09T11:52:01.091Z,20.00
2019-01-09T11:54:29.229Z,20.10
2019-01-09T11:56:57.374Z,16.60
2019-01-09T11:59:25.550Z,17.73
2019-01-09T12:01:53.693Z,15.77
2019-01-09T12:04:22.016Z,25.40
2019-01-09T12:06:50.201Z,25.60
2019-01-09T12:09:18.341Z,24.23
2019-01-09T12:11:46.473Z,18.47
2019-01-09T12:14:15.046Z,24.83
2019-01-09T12:16:43.674Z,24.13
2019-01-09T12:19:11.886Z,22.03
2019-01-09T12:21:39.977Z,20.53
2019-01-09T12:24:08.119Z,21.00
2019-01-09T12:26:36.261Z,22.37
2019-01-09T12:29:04.437Z,20.43
2019-01-09T12:31:32.670Z,25.20
2019-01-09T12:34:00.829Z,21.07
2019-01-09T12:36:28.993Z,17.03
2019-01-09T12:38:57.133Z,17.97
2019-01-09T12:41:25.290Z,24.77
2019-01-09T12:43:53.446Z,12.57
2019-01-09T12:46:21.585Z,12.97
2019-01-09T12:48:49.749Z,17.43
2019-01-09T12:51:17.922Z,21.60
2019-01-09T12:53:46.183Z,18.57
2019-01-09T12:56:14.341Z,19.03
2019-01-09T12:58:42.686Z,19.90
2019-01-09T13:01:12.236Z,17.33
2019-01-09T13:03:40.320Z,20.23
2019-01-09T13:06:08.487Z,16.13
2019-01-09T13:08:36.625Z,17.23
2019-01-09T13:11:04.866Z,19.23
2019-01-09T13:13:33.170Z,12.40
2019-01-09T13:16:01.293Z,11.90
2019-01-09T13:18:29.541Z,15.97
2019-01-09T13:20:58.199Z,16.97
2019-01-09T13:23:26.337Z,11.57
2019-01-09T13:25:56.109Z,10.70
2019-01-09T13:28:24.277Z,14.90
2019-01-09T13:30:52.425Z,15.40
2019-01-09T13:33:20.573Z,13.00
2019-01-09T13:35:48.742Z,11.83
2019-01-09T13:38:17.035Z,13.87
2019-01-09T13:40:45.212Z,9.17
2019-01-09T13:43:14.360Z,14.63
2019-01-09T13:45:42.488Z,13.00
2019-01-09T13:48:10.637Z,14.13
2019-01-09T13:50:39.921Z,9.33
2019-01-09T13:53:08.065Z,14.37
2019-01-09T13:55:36.210Z,14.40
2019-01-09T13:58:04.373Z,9.70
2019-01-09T14:00:32.506Z,8.37
2019-01-09T14:03:00.650Z,10.73
2019-01-09T14:05:28.864Z,17.23
2019-01-09T14:07:57.009Z,12.70
2019-01-09T14:10:25.250Z,16.43
2019-01-09T14:12:53.404Z,11.47
2019-01-09T14:15:22.093Z,14.10
2019-01-09T14:17:50.426Z,13.43
2019-01-09T14:20:18.563Z,13.93
2019-01-09T14:22:46.954Z,10.40
2019-01-09T14:25:15.845Z,12.30
2019-01-09T14:27:44.020Z,8.10
2019-01-09T14:30:13.793Z,11.47
2019-01-09T14:32:42.070Z,13.13
2019-01-09T14:35:10.271Z,11.90
2019-01-09T14:37:38.423Z,18.70
2019-01-09T14:40:08.212Z,11.27
2019-01-09T14:42:36.393Z,9.80
2019-01-09T14:45:06.018Z,9.90
2019-01-09T14:47:34.326Z,14.20
2019-01-09T14:50:02.515Z,18.73
2019-01-09T14:52:30.636Z,13.50
2019-01-09T14:54:59.064Z,12.47
2019-01-09T14:57:27.231Z,13.57
2019-01-09T14:59:55.388Z,11.53
2019-01-09T15:02:23.529Z,7.17
2019-01-09T15:04:51.732Z,17.13
2019-01-09T15:07:19.919Z,8.53
2019-01-09T15:09:56.424Z,9.57
2019-01-09T15:12:17.873Z,7.83
2019-01-09T15:14:46.016Z,12.87
2019-01-09T15:17:14.234Z,15.17
2019-01-09T15:19:42.345Z,11.57
2019-01-09T15:22:10.485Z,8.67
2019-01-09T15:24:38.630Z,14.57
2019-01-09T15:27:06.997Z,8.90
2019-01-09T15:29:35.125Z,8.13
2019-01-09T15:32:03.289Z,18.53
2019-01-09T15:34:31.514Z,12.43
2019-01-09T15:36:59.657Z,13.67
2019-01-09T17:09:09.793Z,11.63
2019-01-09T17:11:37.883Z,12.33
2019-01-09T17:14:06.256Z,8.63
2019-01-09T17:16:34.417Z,12.03
2019-01-09T17:19:02.721Z,16.73
2019-01-09T17:21:30.865Z,19.40
2019-01-09T17:23:59.343Z,17.23
2019-01-09T17:26:27.491Z,11.70
2019-01-09T17:28:55.657Z,13.98
2019-01-09T17:31:23.834Z,16.27
2019-01-09T17:33:53.621Z,11.70
2019-01-09T17:36:21.774Z,19.33
2019-01-09T17:38:49.937Z,11.70
2019-01-09T17:41:18.081Z,17.47
2019-01-09T17:43:46.226Z,15.87
2019-01-09T17:46:14.392Z,14.27
2019-01-09T17:48:44.690Z,11.17
2019-01-09T17:51:12.327Z,16.80
2019-01-09T17:53:40.521Z,14.50
2019-01-09T17:56:08.667Z,13.30
2019-01-09T17:58:36.813Z,17.67
2019-01-09T18:01:05.113Z,12.47
2019-01-09T18:03:33.244Z,21.73
2019-01-09T18:06:01.390Z,13.37
2019-01-09T18:08:29.563Z,13.87
2019-01-09T18:10:57.723Z,13.10
2019-01-09T18:13:25.872Z,10.97
2019-01-09T18:15:54.078Z,14.23
2019-01-09T18:18:22.199Z,22.37
2019-01-09T18:20:50.344Z,17.87
2019-01-09T18:23:18.649Z,8.73
2019-01-09T18:25:46.794Z,12.83
2019-01-09T18:28:14.943Z,18.60
2019-01-09T18:30:44.746Z,14.03
2019-01-09T18:33:17.436Z,10.60
2019-01-09T18:35:49.915Z,11.73
2019-01-09T18:38:19.699Z,16.37
2019-01-09T18:40:59.295Z,10.40
2019-01-09T18:43:32.867Z,17.93
2019-01-09T18:46:08.515Z,13.00
2019-01-09T18:48:41.221Z,15.40
2019-01-09T18:51:10.991Z,10.00
2019-01-09T18:53:39.221Z,18.43
2019-01-09T18:56:07.539Z,11.47
2019-01-09T18:58:35.679Z,14.03
2019-01-09T19:01:05.038Z,15.87
2019-01-09T19:03:34.413Z,12.87
2019-01-09T19:06:04.122Z,11.70
2019-01-09T19:08:32.313Z,12.00
2019-01-09T19:11:07.656Z,17.43
2019-01-09T19:13:31.277Z,10.27
2019-01-09T19:16:03.871Z,15.23
2019-01-09T19:18:31.729Z,20.20
2019-01-09T19:20:59.964Z,17.47
2019-01-09T19:23:31.858Z,12.33
2019-01-09T19:26:00.697Z,11.97
2019-01-09T19:28:29.049Z,15.60
2019-01-09T19:30:57.214Z,12.53
2019-01-09T19:33:27.740Z,10.47
2019-01-09T19:36:00.104Z,16.30
2019-01-09T19:41:17.833Z,10.50
2019-01-09T19:43:47.331Z,12.63
2019-01-09T19:46:15.467Z,10.77
2019-01-09T19:48:44.626Z,11.60
2019-01-09T19:51:17.356Z,8.03
2019-01-09T19:53:42.695Z,13.13
2019-01-09T19:56:10.857Z,11.97
2019-01-09T19:58:39.031Z,8.57
2019-01-09T20:01:07.304Z,9.87
2019-01-09T20:03:35.442Z,9.50
2019-01-09T20:06:03.614Z,11.47
2019-01-09T20:08:31.822Z,9.17
2019-01-09T20:11:00.578Z,11.07
2019-01-09T20:13:29.747Z,12.77
2019-01-09T20:15:57.885Z,11.70
2019-01-09T20:18:28.041Z,11.67
2019-01-09T20:20:55.907Z,11.70
2019-01-09T20:23:24.153Z,7.83
2019-01-09T20:25:52.319Z,13.27
2019-01-09T20:28:20.465Z,9.90
2019-01-09T20:30:48.605Z,11.40
2019-01-09T20:33:16.809Z,17.27
2019-01-09T20:35:44.965Z,6.30
2019-01-09T20:38:13.119Z,9.83
2019-01-09T20:40:41.256Z,11.00
2019-01-09T20:43:09.425Z,12.07
2019-01-09T20:45:37.621Z,12.33
2019-01-09T20:48:05.776Z,17.90
2019-01-09T20:50:33.949Z,19.70
2019-01-09T20:53:02.178Z,6.67
2019-01-09T20:55:30.549Z,13.78
2019-01-09T20:57:59.455Z,9.17
2019-01-09T21:00:28.866Z,12.93
2019-01-09T21:02:59.139Z,16.10
2019-01-09T21:05:34.647Z,8.47
2019-01-09T21:08:05.916Z,11.13
2019-01-09T21:10:34.053Z,20.10
2019-01-09T21:13:02.220Z,9.30
2019-01-09T21:15:30.493Z,10.57
2019-01-09T21:17:58.589Z,11.90
2019-01-09T21:20:26.765Z,7.13
2019-01-09T21:22:54.906Z,11.13
2019-01-09T21:25:23.049Z,9.93
2019-01-09T21:27:51.211Z,8.77
2019-01-09T21:30:25.948Z,9.87
2019-01-09T21:32:54.061Z,10.30
2019-01-09T21:35:22.234Z,13.37
2019-01-09T21:37:50.369Z,8.83
2019-01-09T21:40:19.856Z,8.53
2019-01-09T21:42:48.030Z,9.17
2019-01-09T21:45:16.341Z,11.97
2019-01-09T21:47:44.489Z,15.97
2019-01-09T21:50:16.947Z,9.40
2019-01-09T21:52:45.177Z,10.90
2019-01-09T21:55:14.050Z,12.13
2019-01-09T21:57:42.226Z,13.60
2019-01-09T22:00:12.000Z,14.07
2019-01-09T22:02:40.145Z,19.67
2019-01-09T22:05:08.313Z,8.20
2019-01-09T22:07:36.454Z,15.50
2019-01-09T22:10:06.539Z,11.73
2019-01-09T22:12:35.038Z,9.07
2019-01-09T22:15:03.133Z,9.60
2019-01-09T22:17:31.304Z,12.87
2019-01-09T22:19:59.444Z,12.77
2019-01-09T22:22:27.595Z,12.53
2019-01-09T22:24:55.729Z,10.00
2019-01-09T22:27:24.039Z,10.47
2019-01-09T22:29:52.153Z,14.50
2019-01-09T22:32:22.335Z,8.73
2019-01-09T22:34:50.109Z,6.73
2019-01-09T22:37:18.233Z,8.40
2019-01-09T22:39:46.374Z,9.10
2019-01-09T22:42:14.532Z,16.60
2019-01-09T22:44:42.671Z,9.70
2019-01-09T22:47:10.817Z,12.33
2019-01-09T22:49:38.989Z,10.10
2019-01-09T22:52:07.130Z,9.43
2019-01-09T22:54:36.990Z,15.07
2019-01-09T22:57:05.164Z,11.83
2019-01-09T22:59:33.310Z,13.70
2019-01-09T23:02:01.454Z,15.53
2019-01-09T23:04:29.625Z,10.60
2019-01-09T23:06:58.043Z,13.20
2019-01-09T23:09:26.183Z,11.37
2019-01-09T23:11:54.446Z,10.50
2019-01-09T23:14:22.585Z,10.90
2019-01-09T23:16:50.725Z,12.80
2019-01-09T23:19:19.046Z,12.97
2019-01-09T23:21:47.139Z,10.30
2019-01-09T23:24:15.273Z,10.63
2019-01-09T23:26:43.436Z,14.83
2019-01-09T23:29:11.576Z,11.00
2019-01-09T23:31:39.717Z,16.07
2019-01-09T23:34:07.893Z,15.63
2019-01-09T23:36:36.033Z,12.53
2019-01-09T23:39:05.883Z,15.83
2019-01-09T23:41:34.072Z,17.57
2019-01-09T23:44:02.214Z,12.10
2019-01-09T23:46:30.357Z,14.33
2019-01-09T23:48:58.528Z,15.20
2019-01-09T23:51:27.918Z,20.50
2019-01-09T23:53:56.028Z,13.90
2019-01-09T23:56:24.201Z,16.47
2019-01-09T23:58:52.341Z,13.47
